Time;durP1;ratioP1;P1;durP2;ratioP2;P2;SDS_P1;SDS_P2;PMS_P1;PMS_P2;Temp;Humidity;BMP_temperature;BMP_pressure;BME280_temperature;BME280_humidity;BME280_pressure;Samples;Min_cycle;Max_cycle;Signal;HPM_P1;HPM_P2
2023/04/05 00:00:41;;;;;;;;;;;2.20;99.90;;;;;;5069488;28;19967;-72
2023/04/05 00:03:08;;;;;;;;;;;2.10;99.90;;;;;;5073129;28;20007;-71
2023/04/05 00:05:35;;;;;;;;;;;2.10;99.90;;;;;;5072174;28;20352;-71
2023/04/05 00:08:01;;;;;;;;;;;2.10;99.90;;;;;;5059555;28;19943;-71
2023/04/05 00:10:27;;;;;;;;;;;2.00;99.90;;;;;;5072892;28;19959;-71
2023/04/05 00:12:52;;;;;;;;;;;2.00;99.90;;;;;;5069611;28;20335;-70
2023/04/05 00:15:18;;;;;;;;;;;2.00;99.90;;;;;;5071864;28;20016;-72
2023/04/05 00:17:44;;;;;;;;;;;2.00;99.90;;;;;;5070805;28;20007;-72
2023/04/05 00:20:10;;;;;;;;;;;2.00;99.90;;;;;;5071945;28;19912;-70
2023/04/05 00:22:37;;;;;;;;;;;2.00;99.90;;;;;;5073283;28;19918;-71
2023/04/05 00:25:03;;;;;;;;;;;2.00;99.90;;;;;;5070383;28;19912;-71
2023/04/05 00:27:28;;;;;;;;;;;2.00;99.90;;;;;;5072861;28;19966;-70
2023/04/05 00:29:54;;;;;;;;;;;1.90;99.90;;;;;;5071570;28;19912;-70
2023/04/05 00:32:20;;;;;;;;;;;1.90;99.90;;;;;;5072611;28;19913;-71
2023/04/05 00:34:46;;;;;;;;;;;1.90;99.90;;;;;;5071466;28;19912;-71
2023/04/05 00:37:11;;;;;;;;;;;1.80;99.90;;;;;;5073461;28;20406;-71
2023/04/05 00:39:38;;;;;;;;;;;1.90;99.90;;;;;;5072723;28;20392;-71
2023/04/05 00:42:03;;;;;;;;;;;1.80;99.90;;;;;;5071074;28;19920;-71
2023/04/05 00:44:33;;;;;;;;;;;1.80;99.90;;;;;;5072578;28;19913;-71
2023/04/05 00:47:06;;;;;;;;;;;1.70;99.90;;;;;;5070995;28;21061;-71
2023/04/05 00:49:32;;;;;;;;;;;1.80;99.90;;;;;;5062822;28;20280;-71
2023/04/05 00:51:58;;;;;;;;;;;1.80;99.90;;;;;;5065071;28;19917;-70
2023/04/05 00:54:28;;;;;;;;;;;1.70;99.90;;;;;;5061248;28;19987;-71
2023/04/05 00:56:56;;;;;;;;;;;1.60;99.90;;;;;;5059845;28;19955;-71
2023/04/05 00:59:22;;;;;;;;;;;1.60;99.90;;;;;;5060701;28;20372;-70
2023/04/05 01:01:54;;;;;;;;;;;1.50;99.90;;;;;;5055329;28;19916;-71
2023/04/05 01:04:27;;;;;;;;;;;1.60;99.90;;;;;;5056003;28;20003;-70
2023/04/05 01:06:56;;;;;;;;;;;1.60;99.90;;;;;;5054210;28;19913;-70
2023/04/05 01:09:25;;;;;;;;;;;1.60;99.90;;;;;;5056652;28;19920;-70
2023/04/05 01:11:54;;;;;;;;;;;1.60;99.90;;;;;;5052732;28;19913;-70
2023/04/05 01:14:20;;;;;;;;;;;1.70;99.90;;;;;;5065385;28;19955;-71
2023/04/05 01:16:48;;;;;;;;;;;1.60;99.90;;;;;;5055917;28;19948;-71
2023/04/05 01:19:14;;;;;;;;;;;1.50;99.90;;;;;;5064061;28;19924;-71
2023/04/05 01:22:12;;;;;;;;;;;1.40;99.90;;;;;;5058181;28;19913;-71
2023/04/05 01:24:38;;;;;;;;;;;1.40;99.90;;;;;;5052626;28;19916;-71
2023/04/05 01:27:09;;;;;;;;;;;1.40;99.90;;;;;;5063336;28;19916;-72
2023/04/05 01:29:43;;;;;;;;;;;1.40;99.90;;;;;;5063841;28;19978;-71
2023/04/05 01:32:09;;;;;;;;;;;1.40;99.90;;;;;;5057813;28;19913;-71
2023/04/05 01:34:49;;;;;;;;;;;1.40;99.90;;;;;;5058950;28;19912;-71
2023/04/05 01:37:16;;;;;;;;;;;1.40;99.90;;;;;;5055859;28;19967;-72
2023/04/05 01:39:42;;;;;;;;;;;1.50;99.90;;;;;;5051558;28;19917;-71
2023/04/05 01:42:09;;;;;;;;;;;1.60;99.90;;;;;;5057599;28;19965;-71
2023/04/05 01:44:34;;;;;;;;;;;1.60;99.90;;;;;;5036902;28;20003;-72
2023/04/05 01:47:00;;;;;;;;;;;1.60;99.90;;;;;;5058710;28;20070;-71
2023/04/05 01:49:25;;;;;;;;;;;1.60;99.90;;;;;;5073805;28;19920;-72
2023/04/05 01:51:51;;;;;;;;;;;1.60;99.90;;;;;;5081651;28;19912;-71
2023/04/05 01:54:17;;;;;;;;;;;1.60;99.90;;;;;;5076563;28;19978;-72
2023/04/05 01:56:42;;;;;;;;;;;1.50;99.90;;;;;;5078235;28;19959;-71
2023/04/05 01:59:08;;;;;;;;;;;1.50;99.90;;;;;;5082087;28;19927;-71
2023/04/05 02:01:33;;;;;;;;;;;1.50;99.90;;;;;;5076356;28;19920;-71
2023/04/05 02:03:59;;;;;;;;;;;1.50;99.90;;;;;;5083970;28;20363;-70
2023/04/05 02:06:25;;;;;;;;;;;1.60;99.90;;;;;;5072494;28;19919;-71
2023/04/05 02:08:51;;;;;;;;;;;1.60;99.90;;;;;;5065131;28;19919;-70
2023/04/05 02:11:16;;;;;;;;;;;1.70;99.90;;;;;;5042206;28;19913;-71
2023/04/05 02:13:42;;;;;;;;;;;1.70;99.90;;;;;;5069907;28;19912;-70
2023/04/05 02:16:07;;;;;;;;;;;1.60;99.90;;;;;;5078034;28;19970;-70
2023/04/05 02:18:33;;;;;;;;;;;1.70;99.90;;;;;;5079379;28;20379;-71
2023/04/05 02:21:00;;;;;;;;;;;1.60;99.90;;;;;;5078715;28;20441;-72
2023/04/05 02:23:26;;;;;;;;;;;1.60;99.90;;;;;;5077989;28;19912;-71
2023/04/05 02:25:52;;;;;;;;;;;1.60;99.90;;;;;;5070971;28;20430;-70
2023/04/05 02:28:18;;;;;;;;;;;1.60;99.90;;;;;;5078075;28;19917;-71
2023/04/05 02:30:43;;;;;;;;;;;1.50;99.90;;;;;;5075342;28;19919;-70
2023/04/05 02:33:09;;;;;;;;;;;1.50;99.90;;;;;;5075903;28;20364;-71
2023/04/05 02:35:35;;;;;;;;;;;1.50;99.90;;;;;;5082548;28;20328;-70
2023/04/05 02:38:03;;;;;;;;;;;1.40;99.90;;;;;;5076148;28;19925;-71
2023/04/05 02:40:29;;;;;;;;;;;1.50;99.90;;;;;;5074582;28;19983;-71
2023/04/05 02:42:54;;;;;;;;;;;1.50;99.90;;;;;;5072318;28;20323;-71
2023/04/05 02:45:20;;;;;;;;;;;1.50;99.90;;;;;;5079877;28;19935;-70
2023/04/05 02:47:46;;;;;;;;;;;1.50;99.90;;;;;;5077760;28;20019;-72
2023/04/05 02:50:11;;;;;;;;;;;1.50;99.90;;;;;;5080552;28;19920;-72
2023/04/05 02:52:37;;;;;;;;;;;1.40;99.90;;;;;;5081288;28;19923;-72
2023/04/05 02:55:06;;;;;;;;;;;1.40;99.90;;;;;;5073562;28;19912;-70
2023/04/05 02:57:32;;;;;;;;;;;1.50;99.90;;;;;;5077841;28;20303;-71
2023/04/05 02:59:57;;;;;;;;;;;1.50;99.90;;;;;;5073660;28;19921;-70
2023/04/05 03:02:23;;;;;;;;;;;1.50;99.90;;;;;;5078031;28;19909;-71
2023/04/05 03:04:51;;;;;;;;;;;1.50;99.90;;;;;;5083240;28;19923;-70
2023/04/05 03:07:17;;;;;;;;;;;1.60;99.90;;;;;;5080845;28;20291;-71
2023/04/05 03:09:46;;;;;;;;;;;1.60;99.90;;;;;;5072261;28;19928;-71
2023/04/05 03:12:12;;;;;;;;;;;1.70;99.90;;;;;;5081072;28;19912;-71
2023/04/05 03:14:38;;;;;;;;;;;1.70;99.90;;;;;;5080310;28;19934;-72
2023/04/05 03:17:05;;;;;;;;;;;1.70;99.90;;;;;;5078031;28;19913;-71
2023/04/05 03:19:31;;;;;;;;;;;1.70;99.90;;;;;;5074006;28;19951;-71
2023/04/05 03:21:57;;;;;;;;;;;1.80;99.90;;;;;;5072842;28;19913;-72
2023/04/05 03:24:23;;;;;;;;;;;1.90;99.90;;;;;;5076150;28;19958;-72
2023/04/05 03:26:48;;;;;;;;;;;1.90;99.90;;;;;;5067586;28;19916;-72
2023/04/05 03:29:15;;;;;;;;;;;1.90;99.90;;;;;;5069427;28;19934;-71
2023/04/05 03:31:40;;;;;;;;;;;1.90;99.90;;;;;;5067751;28;19999;-69
2023/04/05 03:34:06;;;;;;;;;;;1.80;99.90;;;;;;5064800;28;19932;-72
2023/04/05 03:36:40;;;;;;;;;;;1.90;99.90;;;;;;5067216;28;20360;-71
2023/04/05 03:39:07;;;;;;;;;;;1.90;99.90;;;;;;5067919;28;19943;-71
2023/04/05 03:41:33;;;;;;;;;;;1.90;99.90;;;;;;5070775;28;19958;-69
2023/04/05 03:43:58;;;;;;;;;;;2.00;99.90;;;;;;5066094;22;20377;-64
2023/04/05 03:46:24;;;;;;;;;;;1.90;99.90;;;;;;5049618;28;19916;-63
2023/04/05 03:48:50;;;;;;;;;;;1.90;99.90;;;;;;5050277;28;19920;-63
2023/04/05 03:51:17;;;;;;;;;;;1.90;99.90;;;;;;5056617;28;19912;-64
2023/04/05 03:53:43;;;;;;;;;;;1.90;99.90;;;;;;5058519;28;19916;-64
2023/04/05 03:56:08;;;;;;;;;;;1.90;99.90;;;;;;5035067;28;20352;-64
2023/04/05 03:58:34;;;;;;;;;;;2.00;99.90;;;;;;5059784;28;19931;-65
2023/04/05 04:01:00;;;;;;;;;;;2.00;99.90;;;;;;5062082;28;19927;-65
2023/04/05 04:03:27;;;;;;;;;;;2.00;99.90;;;;;;5057270;28;19916;-65
2023/04/05 04:05:53;;;;;;;;;;;2.00;99.90;;;;;;5050736;28;19955;-65
2023/04/05 04:08:19;;;;;;;;;;;2.00;99.90;;;;;;5058420;28;20007;-64
2023/04/05 04:10:45;;;;;;;;;;;2.20;99.90;;;;;;5055797;28;19952;-65
2023/04/05 04:13:10;;;;;;;;;;;2.20;99.90;;;;;;5059886;28;19912;-64
2023/04/05 04:15:36;;;;;;;;;;;2.30;99.90;;;;;;5064662;28;19913;-64
2023/04/05 04:18:02;;;;;;;;;;;2.30;99.90;;;;;;5029789;28;20022;-64
2023/04/05 04:20:27;;;;;;;;;;;2.40;99.90;;;;;;5058490;28;19916;-64
2023/04/05 04:22:53;;;;;;;;;;;2.40;99.90;;;;;;5048999;28;19913;-64
2023/04/05 04:25:19;;;;;;;;;;;2.40;99.90;;;;;;5047183;28;19913;-64
2023/04/05 04:27:45;;;;;;;;;;;2.50;99.90;;;;;;5045689;28;19913;-63
2023/04/05 04:30:12;;;;;;;;;;;2.50;99.90;;;;;;5060587;28;20307;-64
2023/04/05 04:32:54;;;;;;;;;;;2.50;99.90;;;;;;5064135;28;19912;-64
2023/04/05 04:35:27;;;;;;;;;;;2.50;99.90;;;;;;5056167;28;19912;-64
2023/04/05 04:37:57;;;;;;;;;;;2.60;99.90;;;;;;5057391;28;19971;-65
2023/04/05 04:40:24;;;;;;;;;;;2.60;99.90;;;;;;5062319;28;20344;-64
2023/04/05 04:42:50;;;;;;;;;;;2.60;99.90;;;;;;5063671;28;19970;-64
2023/04/05 04:45:16;;;;;;;;;;;2.60;99.90;;;;;;5064299;28;20327;-62
2023/04/05 04:47:43;;;;;;;;;;;2.50;99.90;;;;;;5056116;28;20288;-64
2023/04/05 04:50:09;;;;;;;;;;;2.50;99.90;;;;;;5056030;28;19960;-63
2023/04/05 04:52:35;;;;;;;;;;;2.50;99.90;;;;;;5058501;28;20383;-63
2023/04/05 04:55:01;;;;;;;;;;;2.60;99.90;;;;;;5063897;28;19921;-64
2023/04/05 04:57:27;;;;;;;;;;;2.60;99.90;;;;;;5059716;28;20380;-63
2023/04/05 04:59:53;;;;;;;;;;;2.60;99.90;;;;;;5055351;28;19919;-64
2023/04/05 05:02:24;;;;;;;;;;;2.70;99.90;;;;;;5053506;28;20012;-63
2023/04/05 05:04:50;;;;;;;;;;;2.60;99.90;;;;;;5066601;28;20007;-64
2023/04/05 05:07:16;;;;;;;;;;;2.60;99.90;;;;;;5056969;28;20016;-63
2023/04/05 05:09:42;;;;;;;;;;;2.70;99.90;;;;;;5060941;28;19956;-64
2023/04/05 05:12:07;;;;;;;;;;;2.70;99.90;;;;;;5057858;28;19916;-64
2023/04/05 05:14:33;;;;;;;;;;;2.80;99.90;;;;;;5060422;28;19955;-64
2023/04/05 05:16:59;;;;;;;;;;;2.90;99.90;;;;;;5052273;28;19991;-64
2023/04/05 05:19:25;;;;;;;;;;;2.90;99.90;;;;;;5050627;28;19925;-64
2023/04/05 05:21:52;;;;;;;;;;;3.00;99.90;;;;;;5046775;28;20206;-63
2023/04/05 05:24:18;;;;;;;;;;;2.90;99.90;;;;;;5059421;28;19964;-64
2023/04/05 05:26:44;;;;;;;;;;;3.10;99.90;;;;;;5048640;28;19919;-64
2023/04/05 05:29:10;;;;;;;;;;;3.20;99.90;;;;;;5061661;28;19913;-65
2023/04/05 05:31:35;;;;;;;;;;;3.10;99.90;;;;;;5055106;28;19920;-63
2023/04/05 05:34:01;;;;;;;;;;;3.00;99.90;;;;;;5058619;28;19921;-64
2023/04/05 05:36:26;;;;;;;;;;;3.00;99.90;;;;;;5058319;28;20327;-64
2023/04/05 05:38:53;;;;;;;;;;;3.00;99.90;;;;;;5049601;28;19921;-64
2023/04/05 05:41:20;;;;;;;;;;;3.10;99.90;;;;;;5052804;28;19968;-64
2023/04/05 05:43:45;;;;;;;;;;;3.10;99.90;;;;;;5049516;28;20357;-65
2023/04/05 05:46:11;;;;;;;;;;;3.20;99.90;;;;;;5063829;28;20427;-64
2023/04/05 05:48:37;;;;;;;;;;;3.30;99.90;;;;;;5049306;28;19917;-65
2023/04/05 05:51:08;;;;;;;;;;;3.30;99.90;;;;;;5050890;28;19943;-65
2023/04/05 05:53:35;;;;;;;;;;;3.30;99.90;;;;;;5055203;28;19975;-66
2023/04/05 05:56:00;;;;;;;;;;;3.30;99.90;;;;;;5051180;28;19917;-64
2023/04/05 05:58:26;;;;;;;;;;;3.50;99.90;;;;;;5055948;28;19920;-65
2023/04/05 06:00:55;;;;;;;;;;;3.50;99.90;;;;;;5051449;28;19924;-65
2023/04/05 06:03:22;;;;;;;;;;;3.60;99.90;;;;;;5050551;28;20361;-66
2023/04/05 06:05:54;;;;;;;;;;;3.50;99.90;;;;;;5054403;28;19920;-65
2023/04/05 06:08:20;;;;;;;;;;;3.60;99.90;;;;;;5059466;28;19917;-65
2023/04/05 06:10:45;;;;;;;;;;;3.60;99.90;;;;;;5052938;28;19912;-65
2023/04/05 06:13:11;;;;;;;;;;;3.60;99.90;;;;;;5063392;28;20272;-65
2023/04/05 06:15:36;;;;;;;;;;;3.70;99.90;;;;;;5060772;28;20002;-65
2023/04/05 06:18:02;;;;;;;;;;;3.90;99.90;;;;;;5049258;28;19924;-65
2023/04/05 06:20:28;;;;;;;;;;;3.90;99.90;;;;;;5048316;28;19948;-65
2023/04/05 06:22:53;;;;;;;;;;;3.90;99.90;;;;;;5050455;28;20361;-66
2023/04/05 06:25:19;;;;;;;;;;;4.00;99.90;;;;;;5060419;28;19912;-65
2023/04/05 06:27:44;;;;;;;;;;;4.00;99.90;;;;;;5055008;28;20380;-65
2023/04/05 06:30:10;;;;;;;;;;;4.10;99.90;;;;;;5056042;28;19913;-66
2023/04/05 06:32:36;;;;;;;;;;;4.20;99.90;;;;;;5061307;28;19912;-65
2023/04/05 06:35:04;;;;;;;;;;;4.20;99.90;;;;;;5054181;28;19912;-65
2023/04/05 06:37:30;;;;;;;;;;;4.30;99.90;;;;;;5064384;28;19916;-66
2023/04/05 06:39:57;;;;;;;;;;;4.30;99.90;;;;;;5062875;28;19916;-65
2023/04/05 06:42:22;;;;;;;;;;;4.30;99.90;;;;;;5065281;28;19924;-66
2023/04/05 06:44:48;;;;;;;;;;;4.40;99.90;;;;;;5060015;28;19917;-66
2023/04/05 06:47:14;;;;;;;;;;;4.40;99.90;;;;;;5055932;28;20391;-65
2023/04/05 06:49:39;;;;;;;;;;;4.40;99.90;;;;;;5057830;28;19939;-66
2023/04/05 06:52:05;;;;;;;;;;;4.40;99.90;;;;;;5065417;28;20323;-66
2023/04/05 06:54:32;;;;;;;;;;;4.50;99.90;;;;;;5068516;28;19920;-65
2023/04/05 06:56:59;;;;;;;;;;;4.50;99.90;;;;;;5051360;28;20206;-65
2023/04/05 06:59:26;;;;;;;;;;;4.60;99.90;;;;;;5058396;28;19925;-66
2023/04/05 07:01:52;;;;;;;;;;;4.60;99.90;;;;;;5051950;28;19939;-66
2023/04/05 07:04:17;;;;;;;;;;;4.70;99.90;;;;;;5055665;28;19913;-65
2023/04/05 07:06:43;;;;;;;;;;;4.70;99.90;;;;;;5060792;28;19913;-66
2023/04/05 07:09:09;;;;;;;;;;;4.70;99.90;;;;;;5046241;28;19920;-65
2023/04/05 07:11:35;;;;;;;;;;;4.80;99.90;;;;;;5049489;28;20380;-65
2023/04/05 07:14:00;;;;;;;;;;;4.90;99.90;;;;;;5046074;28;20392;-65
2023/04/05 07:16:26;;;;;;;;;;;5.00;99.90;;;;;;5048212;28;19912;-66
2023/04/05 07:18:52;;;;;;;;;;;5.10;99.90;;;;;;5048981;28;19927;-65
2023/04/05 07:21:17;;;;;;;;;;;5.20;99.90;;;;;;5056026;28;20027;-65
2023/04/05 07:23:43;;;;;;;;;;;5.30;99.90;;;;;;5060162;28;19912;-65
2023/04/05 07:26:09;;;;;;;;;;;5.40;99.90;;;;;;5053613;28;19959;-64
2023/04/05 07:28:35;;;;;;;;;;;5.50;99.90;;;;;;5058233;28;20284;-65
2023/04/05 07:31:01;;;;;;;;;;;5.60;99.90;;;;;;5057344;28;20471;-65
2023/04/05 07:33:26;;;;;;;;;;;5.70;99.90;;;;;;5054891;28;19919;-66
2023/04/05 07:35:53;;;;;;;;;;;5.90;99.90;;;;;;5058720;28;20386;-65
2023/04/05 07:38:19;;;;;;;;;;;5.90;99.90;;;;;;5054672;28;19925;-67
2023/04/05 07:40:46;;;;;;;;;;;6.10;99.90;;;;;;5054325;28;19916;-66
2023/04/05 07:43:12;;;;;;;;;;;6.20;99.90;;;;;;5058157;28;20357;-66
2023/04/05 07:45:38;;;;;;;;;;;6.30;99.90;;;;;;5063578;28;19927;-66
2023/04/05 07:48:03;;;;;;;;;;;6.50;99.90;;;;;;5056038;28;20315;-65
2023/04/05 07:50:29;;;;;;;;;;;6.60;99.90;;;;;;5061102;28;19919;-65
2023/04/05 07:52:55;;;;;;;;;;;6.80;99.90;;;;;;5054804;28;19921;-66
2023/04/05 07:55:20;;;;;;;;;;;7.00;99.90;;;;;;5059144;28;19959;-66
2023/04/05 07:57:46;;;;;;;;;;;7.20;99.90;;;;;;5049517;28;19935;-64
2023/04/05 08:00:12;;;;;;;;;;;7.20;99.90;;;;;;5057345;28;19916;-64
2023/04/05 08:02:38;;;;;;;;;;;7.30;99.90;;;;;;5058473;28;20395;-67
2023/04/05 08:05:04;;;;;;;;;;;7.40;99.90;;;;;;5053417;28;19912;-69
2023/04/05 08:07:29;;;;;;;;;;;7.50;99.90;;;;;;5043009;28;19967;-67
2023/04/05 08:09:56;;;;;;;;;;;7.60;99.90;;;;;;5048599;28;19936;-69
2023/04/05 08:12:22;;;;;;;;;;;7.80;99.90;;;;;;5057272;28;19916;-70
2023/04/05 08:14:48;;;;;;;;;;;7.90;99.90;;;;;;5055902;28;20249;-69
2023/04/05 08:17:15;;;;;;;;;;;8.00;99.90;;;;;;5060807;28;19936;-68
2023/04/05 08:19:41;;;;;;;;;;;8.10;99.90;;;;;;5055315;28;19925;-67
2023/04/05 08:22:06;;;;;;;;;;;8.30;99.90;;;;;;5052685;28;19919;-68
2023/04/05 08:24:32;;;;;;;;;;;8.50;99.90;;;;;;5055900;28;20078;-68
2023/04/05 08:26:57;;;;;;;;;;;8.60;99.90;;;;;;5050183;28;19913;-68
2023/04/05 08:29:23;;;;;;;;;;;8.80;99.90;;;;;;5062351;28;19912;-67
2023/04/05 08:31:48;;;;;;;;;;;9.00;99.90;;;;;;5059294;28;19928;-67
2023/04/05 08:34:14;;;;;;;;;;;9.10;99.90;;;;;;5062825;28;19924;-68
2023/04/05 08:36:40;;;;;;;;;;;9.30;99.90;;;;;;5052080;28;20104;-68
2023/04/05 08:39:05;;;;;;;;;;;9.40;99.90;;;;;;5053873;28;19931;-67
2023/04/05 08:41:40;;;;;;;;;;;9.40;99.90;;;;;;5052584;28;19913;-67
2023/04/05 08:44:08;;;;;;;;;;;9.60;99.90;;;;;;5056872;28;19965;-69
2023/04/05 08:46:34;;;;;;;;;;;9.80;99.90;;;;;;5058972;28;19919;-69
2023/04/05 08:49:03;;;;;;;;;;;9.90;99.90;;;;;;5055688;28;19913;-69
2023/04/05 08:51:28;;;;;;;;;;;10.10;99.90;;;;;;5060426;28;19962;-67
2023/04/05 08:53:54;;;;;;;;;;;10.20;99.90;;;;;;5053639;28;19988;-69
2023/04/05 08:56:21;;;;;;;;;;;10.30;99.90;;;;;;5055643;28;19916;-68
2023/04/05 08:59:02;;;;;;;;;;;10.50;99.90;;;;;;5047620;28;19921;-69
2023/04/05 09:01:29;;;;;;;;;;;10.70;99.90;;;;;;5058708;28;19974;-68
2023/04/05 09:03:56;;;;;;;;;;;10.90;99.90;;;;;;5053930;28;20364;-69
2023/04/05 09:06:21;;;;;;;;;;;11.00;99.90;;;;;;5055634;28;19917;-70
2023/04/05 09:08:47;;;;;;;;;;;11.20;99.90;;;;;;5054787;28;19912;-67
2023/04/05 09:11:14;;;;;;;;;;;11.30;99.90;;;;;;5052446;28;19917;-68
2023/04/05 09:13:39;;;;;;;;;;;11.40;99.90;;;;;;5059283;28;20365;-69
2023/04/05 09:16:06;;;;;;;;;;;11.40;99.90;;;;;;5055646;28;19953;-69
2023/04/05 09:18:31;;;;;;;;;;;11.40;99.90;;;;;;5052966;28;19924;-70
2023/04/05 09:21:04;;;;;;;;;;;11.50;99.90;;;;;;5055532;28;19920;-70
2023/04/05 09:23:30;;;;;;;;;;;11.60;99.90;;;;;;5058176;28;20365;-67
2023/04/05 09:25:56;;;;;;;;;;;11.60;99.90;;;;;;5055302;28;19920;-68
2023/04/05 09:28:21;;;;;;;;;;;11.60;99.90;;;;;;5052603;28;19917;-68
2023/04/05 09:30:47;;;;;;;;;;;11.60;99.90;;;;;;5053763;28;19992;-65
2023/04/05 09:33:19;;;;;;;;;;;11.70;99.90;;;;;;5050268;28;19935;-70
2023/04/05 09:35:48;;;;;;;;;;;11.90;99.90;;;;;;5052151;28;19917;-68
2023/04/05 09:38:14;;;;;;;;;;;11.90;99.90;;;;;;5053499;28;19929;-65
2023/04/05 09:40:44;;;;;;;;;;;12.00;99.90;;;;;;5050244;28;19917;-66
2023/04/05 09:43:13;;;;;;;;;;;12.10;99.90;;;;;;5043422;28;19925;-68
2023/04/05 09:45:42;;;;;;;;;;;12.20;99.90;;;;;;5047056;28;19920;-67
2023/04/05 09:48:08;;;;;;;;;;;12.30;99.90;;;;;;5047897;28;19982;-67
2023/04/05 09:50:34;;;;;;;;;;;12.20;99.90;;;;;;5049445;28;20346;-67
2023/04/05 09:53:07;;;;;;;;;;;12.10;99.90;;;;;;5049880;28;19919;-68
2023/04/05 09:55:32;;;;;;;;;;;11.90;99.90;;;;;;5050141;28;19913;-68
2023/04/05 09:57:58;;;;;;;;;;;11.90;99.90;;;;;;5049649;28;19923;-67
2023/04/05 10:00:23;;;;;;;;;;;11.90;99.90;;;;;;5052052;28;19913;-67
2023/04/05 10:02:53;;;;;;;;;;;11.80;99.90;;;;;;5050067;28;20010;-68
2023/04/05 10:05:22;;;;;;;;;;;11.70;99.90;;;;;;5054189;28;19913;-68
2023/04/05 10:07:47;;;;;;;;;;;11.60;99.90;;;;;;5047465;28;19975;-65
2023/04/05 10:10:15;;;;;;;;;;;11.50;99.90;;;;;;5049261;28;20327;-66
2023/04/05 10:12:40;;;;;;;;;;;11.50;99.90;;;;;;5045275;28;19912;-66
2023/04/05 10:15:10;;;;;;;;;;;11.70;99.90;;;;;;5054972;28;19917;-67
2023/04/05 10:17:35;;;;;;;;;;;11.70;99.90;;;;;;5050236;28;19955;-66
2023/04/05 10:20:08;;;;;;;;;;;11.60;99.90;;;;;;5047367;28;20465;-67
2023/04/05 10:22:34;;;;;;;;;;;11.40;99.90;;;;;;5048982;28;19935;-67
2023/04/05 10:25:29;;;;;;;;;;;11.30;99.90;;;;;;5055029;28;20275;-67
2023/04/05 10:27:58;;;;;;;;;;;11.20;99.90;;;;;;5037060;28;19917;-66
2023/04/05 10:30:27;;;;;;;;;;;11.20;99.90;;;;;;5056587;28;19913;-65
2023/04/05 10:33:02;;;;;;;;;;;11.40;99.90;;;;;;5045361;28;20383;-68
2023/04/05 10:35:33;;;;;;;;;;;11.50;99.90;;;;;;5053657;28;19963;-67
2023/04/05 10:38:16;;;;;;;;;;;11.60;99.90;;;;;;5050952;28;19921;-66
2023/04/05 10:40:45;;;;;;;;;;;11.80;99.90;;;;;;5055823;28;19916;-62
2023/04/05 10:43:15;;;;;;;;;;;12.10;99.90;;;;;;5051137;28;19929;-67
2023/04/05 10:45:41;;;;;;;;;;;12.10;99.90;;;;;;5050188;28;20348;-66
2023/04/05 10:48:15;;;;;;;;;;;12.20;99.90;;;;;;5055868;28;20300;-68
2023/04/05 10:50:41;;;;;;;;;;;12.20;99.90;;;;;;5052280;28;20007;-67
2023/04/05 10:53:08;;;;;;;;;;;12.50;99.90;;;;;;5053436;28;19952;-67
2023/04/05 10:55:34;;;;;;;;;;;12.50;99.90;;;;;;5037443;28;19948;-68
2023/04/05 10:58:00;;;;;;;;;;;12.70;99.90;;;;;;5047427;28;19948;-67
2023/04/05 11:00:25;;;;;;;;;;;12.60;99.90;;;;;;5052080;28;20003;-67
2023/04/05 11:02:57;;;;;;;;;;;12.80;99.90;;;;;;5048364;28;20011;-66
2023/04/05 11:05:42;;;;;;;;;;;12.80;99.90;;;;;;5052086;28;19916;-66
2023/04/05 11:08:09;;;;;;;;;;;12.80;99.90;;;;;;5041332;28;19935;-67
2023/04/05 11:10:35;;;;;;;;;;;12.90;99.90;;;;;;5053851;28;19960;-67
2023/04/05 11:13:02;;;;;;;;;;;13.20;99.90;;;;;;5049065;28;19914;-66
2023/04/05 11:15:28;;;;;;;;;;;13.30;99.90;;;;;;5051120;28;19912;-66
2023/04/05 11:18:04;;;;;;;;;;;13.30;99.90;;;;;;5046348;28;19917;-67
2023/04/05 11:20:41;;;;;;;;;;;13.20;99.90;;;;;;5054004;28;20377;-68
2023/04/05 11:23:07;;;;;;;;;;;13.60;99.90;;;;;;5030728;28;19917;-66
2023/04/05 11:25:37;;;;;;;;;;;13.70;99.90;;;;;;5048775;28;19962;-66
2023/04/05 11:28:04;;;;;;;;;;;13.70;99.90;;;;;;5048097;28;19913;-67
2023/04/05 11:30:52;;;;;;;;;;;13.70;99.90;;;;;;5051345;28;19919;-67
2023/04/05 11:33:37;;;;;;;;;;;13.60;99.90;;;;;;5057493;28;19913;-68
2023/04/05 11:36:02;;;;;;;;;;;13.30;99.90;;;;;;5047601;28;19932;-66
2023/04/05 11:38:28;;;;;;;;;;;13.60;99.90;;;;;;5049858;28;19925;-65
2023/04/05 11:41:11;;;;;;;;;;;14.00;99.90;;;;;;5050687;28;19913;-68
2023/04/05 11:43:37;;;;;;;;;;;13.90;99.90;;;;;;5046834;28;19921;-67
2023/04/05 11:46:06;;;;;;;;;;;13.80;99.90;;;;;;5044471;28;19914;-67
2023/04/05 11:48:31;;;;;;;;;;;13.60;99.90;;;;;;5048023;28;19920;-67
2023/04/05 11:50:57;;;;;;;;;;;13.60;99.90;;;;;;5043884;28;19913;-67
2023/04/05 11:53:23;;;;;;;;;;;13.60;99.90;;;;;;5050785;28;19917;-66
2023/04/05 11:55:50;;;;;;;;;;;13.80;99.90;;;;;;5045165;28;20375;-66
2023/04/05 11:58:20;;;;;;;;;;;13.80;99.90;;;;;;5055815;28;19950;-65
2023/04/05 12:00:46;;;;;;;;;;;13.70;99.90;;;;;;5048836;28;19924;-65
2023/04/05 12:03:15;;;;;;;;;;;13.70;99.90;;;;;;5054445;28;19947;-67
2023/04/05 12:05:44;;;;;;;;;;;13.60;99.90;;;;;;5052062;28;19967;-67
2023/04/05 12:08:10;;;;;;;;;;;13.50;99.90;;;;;;5040911;28;20292;-65
2023/04/05 12:10:36;;;;;;;;;;;13.80;99.90;;;;;;5038951;28;19913;-66
2023/04/05 12:13:01;;;;;;;;;;;14.00;99.90;;;;;;5051505;28;20525;-66
2023/04/05 12:15:27;;;;;;;;;;;14.00;99.90;;;;;;5053240;28;19912;-66
2023/04/05 12:17:53;;;;;;;;;;;14.10;99.90;;;;;;5047974;28;19917;-66
2023/04/05 12:20:20;;;;;;;;;;;14.40;99.90;;;;;;5054780;28;19924;-66
2023/04/05 12:22:47;;;;;;;;;;;14.50;99.90;;;;;;5044673;28;19916;-65
2023/04/05 12:25:13;;;;;;;;;;;14.70;99.90;;;;;;5057223;28;19913;-66
2023/04/05 12:27:39;;;;;;;;;;;15.00;99.90;;;;;;5048777;28;19936;-66
2023/04/05 12:30:09;;;;;;;;;;;15.20;99.90;;;;;;5052412;28;19958;-66
2023/04/05 12:32:36;;;;;;;;;;;15.10;99.90;;;;;;5048316;28;20013;-66
2023/04/05 12:35:05;;;;;;;;;;;15.20;99.90;;;;;;5033665;28;20935;-66
2023/04/05 12:37:32;;;;;;;;;;;15.40;99.90;;;;;;5053444;28;20352;-66
2023/04/05 12:40:01;;;;;;;;;;;15.40;99.90;;;;;;5047930;28;20006;-66
2023/04/05 12:42:30;;;;;;;;;;;15.70;99.90;;;;;;5047050;28;20067;-67
2023/04/05 12:45:03;;;;;;;;;;;15.90;99.90;;;;;;5034640;28;19925;-66
2023/04/05 12:47:28;;;;;;;;;;;15.80;99.90;;;;;;5033066;28;19920;-67
2023/04/05 12:49:54;;;;;;;;;;;16.00;99.90;;;;;;5027822;28;19913;-67
2023/04/05 12:52:20;;;;;;;;;;;16.20;99.90;;;;;;5035128;28;20004;-62
2023/04/05 12:54:54;;;;;;;;;;;16.10;99.90;;;;;;5035888;28;19917;-61
2023/04/05 12:57:30;;;;;;;;;;;15.90;99.90;;;;;;5030288;28;19936;-62
2023/04/05 12:59:56;;;;;;;;;;;15.70;99.90;;;;;;5034960;28;20007;-62
2023/04/05 13:02:22;;;;;;;;;;;15.50;99.90;;;;;;5023692;28;20373;-62
2023/04/05 13:04:47;;;;;;;;;;;15.40;99.90;;;;;;5030394;28;19920;-61
2023/04/05 13:07:13;;;;;;;;;;;15.70;99.90;;;;;;5031938;28;20565;-61
2023/04/05 13:09:38;;;;;;;;;;;15.50;99.90;;;;;;5035878;28;19919;-62
2023/04/05 13:12:04;;;;;;;;;;;15.40;99.90;;;;;;5034192;28;20384;-61
2023/04/05 13:14:29;;;;;;;;;;;15.10;99.90;;;;;;5031826;28;19913;-61
2023/04/05 13:16:55;;;;;;;;;;;14.70;99.90;;;;;;5016036;28;19920;-62
2023/04/05 13:19:21;;;;;;;;;;;14.30;99.90;;;;;;5030770;28;20015;-63
2023/04/05 13:21:46;;;;;;;;;;;14.20;99.90;;;;;;5026753;28;19964;-62
2023/04/05 13:24:12;;;;;;;;;;;14.10;99.90;;;;;;5030567;28;19932;-62
2023/04/05 13:26:37;;;;;;;;;;;14.10;99.90;;;;;;5027002;28;19968;-62
2023/04/05 13:29:04;;;;;;;;;;;14.30;99.90;;;;;;5028486;28;20007;-62
2023/04/05 13:31:29;;;;;;;;;;;14.50;99.90;;;;;;5033823;28;19928;-62
2023/04/05 13:33:55;;;;;;;;;;;14.40;99.90;;;;;;5032123;28;19913;-62
2023/04/05 13:36:20;;;;;;;;;;;14.40;99.90;;;;;;5026036;28;20012;-62
2023/04/05 13:38:46;;;;;;;;;;;13.90;99.90;;;;;;5021004;28;19929;-62
2023/04/05 13:41:14;;;;;;;;;;;13.80;99.90;;;;;;5026752;28;19921;-62
2023/04/05 13:43:40;;;;;;;;;;;13.90;99.90;;;;;;5016926;28;19921;-62
2023/04/05 13:46:05;;;;;;;;;;;13.60;99.90;;;;;;5043827;28;19920;-62
2023/04/05 13:48:31;;;;;;;;;;;13.60;99.90;;;;;;5048922;28;19974;-62
2023/04/05 13:50:57;;;;;;;;;;;13.40;99.90;;;;;;5046476;28;19922;-63
2023/04/05 13:53:22;;;;;;;;;;;13.20;99.90;;;;;;5047967;28;20007;-62
2023/04/05 13:55:48;;;;;;;;;;;13.10;99.90;;;;;;5047130;28;20265;-63
2023/04/05 13:58:13;;;;;;;;;;;12.90;99.90;;;;;;5046473;28;19924;-62
2023/04/05 14:00:39;;;;;;;;;;;12.60;99.90;;;;;;5049759;28;19966;-62
2023/04/05 14:03:05;;;;;;;;;;;12.60;99.90;;;;;;5043768;28;19982;-62
2023/04/05 14:05:30;;;;;;;;;;;12.70;99.90;;;;;;5047036;28;19920;-63
2023/04/05 14:07:56;;;;;;;;;;;12.50;99.90;;;;;;5044078;28;19943;-63
2023/04/05 14:10:22;;;;;;;;;;;12.40;99.90;;;;;;5048063;28;19952;-64
2023/04/05 14:12:48;;;;;;;;;;;12.40;99.90;;;;;;5042881;28;19938;-63
2023/04/05 14:15:14;;;;;;;;;;;12.30;99.90;;;;;;5049342;28;19912;-64
2023/04/05 14:17:40;;;;;;;;;;;12.30;99.90;;;;;;5049212;28;19956;-63
2023/04/05 14:20:06;;;;;;;;;;;12.20;99.90;;;;;;5045981;28;20395;-63
2023/04/05 14:22:32;;;;;;;;;;;12.20;99.90;;;;;;5048171;28;19913;-61
2023/04/05 14:24:58;;;;;;;;;;;12.20;99.90;;;;;;5047062;28;20357;-62